Latest Weather Observations for Wagga Wagga

IDN60801

Issued at 4:32 pm EDT Sunday 26 February 2017 (issued every 30 minutes, with the page automatically refreshed every 10 minutes)

About weather observations | Map of weather stations | Latest weather observations for NSW | Other Formats
Station Details ID: 072150 Name: WAGGA WAGGA AMO Lat: -35.16 Lon: 147.46 Height: 212.0 m
Data from the previous 72 hours. | See also: Recent months at Wagga Wagga
Date/Time
EDT
Temp
°C
App
Temp
°C
Dew
Point
°C
Rel
Hum
%
Delta-T
°C
Wind Press
QNH
hPa
Press
MSL
hPa
Rain since
9am
mm
Dir  Spd
km/h
Gust
km/h
Spd
kts
Gust
kts
26/04:30pm 29.3 24.9 6.5 23 12.2 E 19 32 10 17 1018.2 1017.2 0.0
26/04:00pm 29.5 25.7 7.5 25 12.0 NE 17 28 9 15 1018.4 1017.4 0.0
26/03:30pm 29.0 24.9 7.8 26 11.6 NE 19 28 10 15 1018.7 1017.7 0.0
26/03:00pm 29.5 25.8 8.1 26 11.8 ENE 17 20 9 11 1018.9 1018.0 0.0
26/02:30pm 28.4 23.1 7.0 26 11.5 ENE 24 30 13 16 1019.4 1018.4 0.0
26/02:00pm 28.2 24.9 8.1 28 11.0 NE 15 28 8 15 1019.6 1018.6 0.0
26/01:30pm 27.6 23.6 8.2 29 10.6 NE 19 30 10 16 1020.1 1019.1 0.0
26/01:00pm 26.9 22.4 8.4 31 10.1 ENE 22 35 12 19 1020.2 1019.2 0.0
26/12:30pm 26.9 21.6 8.4 31 10.1 E 26 37 14 20 1020.6 1019.6 0.0
26/12:00pm 26.0 20.3 8.3 32 9.6 E 28 37 15 20 1020.9 1019.9 0.0
26/11:30am 25.1 19.4 8.5 34 9.0 ENE 28 37 15 20 1021.2 1020.2 0.0
26/11:00am 24.6 17.6 8.5 36 8.7 E 35 48 19 26 1021.3 1020.3 0.0
26/10:30am 23.4 17.7 8.5 38 8.0 ENE 28 39 15 21 1021.5 1020.5 0.0
26/10:00am 22.6 15.5 8.0 39 7.7 ENE 35 43 19 23 1021.5 1020.5 0.0
26/09:30am 22.0 15.2 7.9 40 7.4 E 33 43 18 23 1021.3 1020.3 0.0
26/09:00am 20.5 13.9 7.8 44 6.6 ENE 32 43 17 23 1021.2 1020.2 0.0
26/08:30am 20.2 14.8 8.1 45 6.3 E 26 39 14 21 1020.9 1019.9 0.0
26/08:00am 19.3 15.8 8.6 50 5.6 ENE 17 28 9 15 1020.7 1019.7 0.0
26/07:30am 18.2 15.6 9.5 57 4.6 NE 13 17 7 9 1020.5 1019.5 0.0
26/07:00am 17.3 15.6 10.0 62 3.9 ENE 9 13 5 7 1020.2 1019.2 0.0
26/06:30am 17.5 15.5 10.2 62 3.9 E 11 13 6 7 1019.9 1018.9 0.0
26/06:00am 18.0 16.1 10.4 61 4.1 E 11 17 6 9 1019.5 1018.5 0.0
26/05:30am 18.5 16.2 10.4 59 4.4 E 13 19 7 10 1019.3 1018.3 0.0
26/05:00am 17.3 17.6 10.8 65 3.5 CALM 0 0 0 0 1018.7 1017.7 0.0
26/04:30am 17.8 16.0 10.8 63 3.8 SE 11 13 6 7 1018.5 1017.5 0.0
26/04:00am 18.6 17.5 10.7 60 4.3 SE 7 13 4 7 1018.4 1017.4 0.0
26/03:30am 18.6 16.4 10.7 60 4.3 E 13 19 7 10 1018.3 1017.3 0.0
26/03:00am 19.0 16.8 10.8 59 4.5 E 13 19 7 10 1018.3 1017.3 0.0
26/02:30am 19.0 16.1 11.0 59 4.4 E 17 22 9 12 1018.6 1017.6 0.0
26/02:00am 19.4 16.5 11.0 58 4.6 E 17 24 9 13 1018.9 1018.0 0.0
26/01:30am 19.6 16.6 10.8 56 4.8 ENE 17 24 9 13 1018.8 1017.9 0.0
26/01:00am 19.8 17.6 10.7 55 5.0 ENE 13 17 7 9 1018.9 1018.0 0.0
26/12:30am 20.2 17.9 10.3 53 5.4 E 13 24 7 13 1018.8 1017.9 0.0
26/12:00am 20.7 16.1 9.8 49 5.9 E 24 33 13 18 1018.5 1017.5 0.0
 
Date/Time
EDT
Temp
°C
App
Temp
°C
Dew
Point
°C
Rel
Hum
%
Delta-T
°C
Wind Press
QNH
hPa
Press
MSL
hPa
Rain since
9am
mm
Dir  Spd
km/h
Gust
km/h
Spd
kts
Gust
kts
25/11:30pm 21.0 16.0 9.5 47 6.2 ENE 26 33 14 18 1018.3 1017.3 0.0
25/11:00pm 21.4 15.6 9.3 46 6.5 ENE 30 41 16 22 1018.2 1017.2 0.0
25/10:34pm 21.8 16.0 9.6 45 6.6 ENE 30 48 16 26 1017.9 1016.9 0.0
25/10:30pm 21.9 15.7 9.5 45 6.7 ENE 32 43 17 23 1017.8 1016.8 0.0
25/10:08pm 22.2 16.2 10.0 46 6.7 ENE 32 50 17 27 1017.7 1016.7 0.0
25/10:00pm 22.4 15.0 10.0 45 6.8 ENE 39 50 21 27 1017.5 1016.5 0.0
25/09:30pm 23.1 17.5 10.3 44 7.1 ENE 30 39 16 21 1017.3 1016.3 0.0
25/09:00pm 23.6 18.1 10.5 43 7.3 ENE 30 39 16 21 1016.8 1015.8 0.0
25/08:30pm 24.1 19.8 10.7 43 7.5 ENE 24 32 13 17 1016.4 1015.4 0.0
25/08:00pm 24.9 19.4 10.4 40 8.1 ENE 30 37 16 20 1016.1 1015.1 0.0
25/07:30pm 25.9 20.6 10.0 36 8.9 ENE 28 35 15 19 1015.6 1014.6 0.0
25/07:00pm 27.5 22.5 9.6 32 10.0 ENE 26 37 14 20 1015.3 1014.3 0.0
25/06:30pm 28.7 24.9 9.0 29 11.0 ENE 19 28 10 15 1015.1 1014.1 0.0
25/06:00pm 29.2 25.8 7.6 25 11.8 ENE 15 22 8 12 1015.1 1014.1 0.0
25/05:30pm 30.0 27.7 8.9 26 11.8 ENE 11 15 6 8 1015.1 1014.1 0.0
25/05:00pm 29.7 27.1 9.3 28 11.5 NNE 13 20 7 11 1015.3 1014.3 0.0
25/04:30pm 29.9 26.7 9.8 28 11.4 NE 17 28 9 15 1015.6 1014.6 0.0
25/04:00pm 29.6 25.7 9.6 28 11.3 ENE 20 30 11 16 1016.0 1015.0 0.0
25/03:30pm 29.4 26.4 10.8 31 10.7 ENE 17 26 9 14 1016.4 1015.4 0.0
25/03:00pm 29.1 25.7 10.4 31 10.7 NNE 19 26 10 14 1016.6 1015.6 0.0
25/02:30pm 29.1 26.8 11.6 33 10.2 NE 15 26 8 14 1016.9 1015.9 0.0
25/02:00pm 29.2 26.0 11.2 32 10.4 NE 19 30 10 16 1017.3 1016.3 0.0
25/01:30pm 28.4 26.5 11.9 36 9.6 E 13 26 7 14 1017.7 1016.7 0.0
25/01:00pm 27.8 26.1 12.5 38 9.0 E 13 26 7 14 1018.0 1017.0 0.0
25/12:30pm 26.9 24.9 12.8 41 8.3 NNE 15 24 8 13 1018.3 1017.3 0.0
25/12:00pm 26.8 24.8 12.6 41 8.3 E 15 28 8 15 1018.6 1017.6 0.0
25/11:30am 25.8 22.8 12.4 43 7.8 E 20 28 11 15 1018.8 1017.9 0.0
25/11:00am 25.5 22.6 12.8 45 7.4 ENE 20 30 11 16 1019.1 1018.1 0.0
25/10:30am 24.2 20.8 12.4 47 6.8 E 22 32 12 17 1019.3 1018.3 0.0
25/10:00am 23.3 19.6 12.7 51 6.1 ENE 24 33 13 18 1019.4 1018.4 0.0
25/09:30am 22.4 17.6 12.9 55 5.5 ENE 30 35 16 19 1019.1 1018.1 0.0
25/09:00am 21.8 18.5 12.9 57 5.1 ENE 22 33 12 18 1019.3 1018.3 0.0
25/08:30am 19.2 15.7 10.3 56 4.8 E 19 24 10 13 1019.2 1018.2 0.0
25/08:00am 17.4 16.2 10.3 63 3.8 ENE 7 19 4 10 1018.9 1018.0 0.0
25/07:30am 14.2 13.6 7.6 64 3.3 CALM 0 0 0 0 1018.7 1017.7 0.0
25/07:00am 12.7 10.8 7.6 71 2.5 WNW 7 9 4 5 1018.6 1017.6 0.0
25/06:30am 12.9 11.8 6.9 67 2.9 ENE 2 6 1 3 1018.3 1017.3 0.0
25/06:00am 14.4 12.3 6.6 59 3.8 E 7 9 4 5 1017.9 1016.9 0.0
25/05:30am 15.0 12.6 6.9 58 4.0 E 9 11 5 6 1017.9 1016.9 0.0
25/05:00am 13.2 12.0 6.6 64 3.2 NNW 2 7 1 4 1017.9 1016.9 0.0
25/04:30am 13.9 13.1 6.7 62 3.5 CALM 0 0 0 0 1017.7 1016.7 0.0
25/04:00am 14.9 14.1 6.5 57 4.1 CALM 0 6 0 3 1017.6 1016.6 0.0
25/03:30am 15.2 14.3 5.9 54 4.5 CALM 0 4 0 2 1017.8 1016.8 0.0
25/03:00am 15.4 13.5 6.9 57 4.2 NNW 6 9 3 5 1017.8 1016.8 0.0
25/02:30am 15.6 14.5 6.9 56 4.3 ENE 2 7 1 4 1017.8 1016.8 0.0
25/02:00am 16.9 15.6 6.1 49 5.3 ENE 2 6 1 3 1018.0 1017.0 0.0
25/01:30am 18.3 15.3 6.0 44 6.1 N 11 15 6 8 1018.1 1017.1 0.0
25/01:00am 18.9 16.6 5.8 42 6.5 NNE 7 11 4 6 1018.0 1017.0 0.0
25/12:30am 19.9 17.5 5.4 38 7.2 NE 7 11 4 6 1018.1 1017.1 0.0
25/12:00am 20.5 18.3 6.0 38 7.3 WNW 7 7 4 4 1018.1 1017.1 0.0
 
Date/Time
EDT
Temp
°C
App
Temp
°C
Dew
Point
°C
Rel
Hum
%
Delta-T
°C
Wind Press
QNH
hPa
Press
MSL
hPa
Rain since
9am
mm
Dir  Spd
km/h
Gust
km/h
Spd
kts
Gust
kts
24/11:30pm 21.3 17.8 5.6 36 7.9 W 13 17 7 9 1017.9 1016.9 0.0
24/11:00pm 22.0 18.3 4.3 31 8.7 WSW 13 17 7 9 1017.9 1016.9 0.0
24/10:30pm 22.3 18.8 3.3 28 9.2 WSW 11 15 6 8 1017.8 1016.8 0.0
24/10:00pm 23.2 19.2 2.6 26 9.9 WSW 13 20 7 11 1017.8 1016.8 0.0
24/09:30pm 24.4 19.4 1.4 22 10.9 WSW 17 22 9 12 1017.6 1016.6 0.0
24/09:00pm 25.4 20.3 0.5 19 11.7 WSW 17 19 9 10 1017.3 1016.3 0.0
24/08:30pm 26.4 21.1 -0.5 17 12.5 WSW 17 20 9 11 1017.0 1016.0 0.0
24/08:00pm 27.5 22.4 -1.7 14 13.4 WSW 15 19 8 10 1016.7 1015.7 0.0
24/07:30pm 29.6 23.2 -4.8 10 15.2 WSW 20 30 11 16 1016.4 1015.4 0.0
24/07:00pm 31.1 24.3 -5.6 9 16.2 WSW 22 32 12 17 1016.2 1015.2 0.0
24/06:30pm 32.2 25.0 -5.4 8 16.8 WSW 24 33 13 18 1016.0 1015.0 0.0
24/06:00pm 32.6 24.9 -6.5 7 17.2 WSW 26 35 14 19 1015.9 1014.9 0.0
24/05:30pm 33.3 25.9 -7.8 7 17.8 WSW 24 33 13 18 1015.8 1014.8 0.0
24/05:00pm 33.3 25.4 -8.6 6 17.9 WSW 26 37 14 20 1015.9 1014.9 0.0
24/04:30pm 34.0 27.0 -3.4 9 17.5 WSW 24 39 13 21 1016.0 1015.0 0.0
24/04:00pm 33.4 26.9 -2.6 10 17.0 WSW 22 37 12 20 1016.2 1015.2 0.0
24/03:30pm 33.4 27.3 -2.1 10 16.9 WSW 20 32 11 17 1016.5 1015.5 0.0
24/03:00pm 33.8 26.8 -3.5 9 17.4 WSW 24 33 13 18 1016.9 1015.9 0.0
24/02:30pm 33.6 26.5 -4.2 8 17.4 WSW 24 33 13 18 1017.4 1016.4 0.0
24/02:00pm 32.5 26.9 0.9 13 15.7 WSW 20 32 11 17 1017.8 1016.8 0.0
24/01:30pm 32.1 26.8 1.6 14 15.3 SW 19 26 10 14 1018.1 1017.1 0.0
24/01:00pm 31.3 26.0 3.2 17 14.4 WSW 20 35 11 19 1018.5 1017.5 0.0
24/12:30pm 30.4 28.9 15.4 40 9.3 WSW 17 26 9 14 1018.9 1018.0 0.0
24/12:00pm 30.4 27.2 10.1 28 11.6 SW 17 24 9 13 1019.4 1018.4 0.0
24/11:30am 30.1 25.5 5.8 21 12.9 WSW 19 30 10 16 1019.6 1018.6 0.0
24/11:00am 29.0 24.6 5.0 21 12.5 W 17 26 9 14 1019.9 1018.9 0.0
24/10:30am 27.1 24.8 7.3 28 10.6 WNW 9 17 5 9 1020.0 1019.0 0.0
24/10:00am 25.0 23.5 8.3 34 9.0 WNW 6 11 3 6 1020.1 1019.1 0.0
24/09:30am 22.7 21.2 9.0 41 7.4 NW 7 9 4 5 1020.0 1019.0 0.0
24/09:00am 21.2 19.1 8.3 43 6.8 N 9 11 5 6 1019.9 1018.9 0.0
24/08:30am 19.5 18.0 8.4 48 5.8 NNW 6 7 3 4 1019.6 1018.6 0.0
24/08:00am 18.4 17.3 8.4 52 5.2 NE 4 9 2 5 1019.1 1018.1 0.0
24/07:30am 16.3 15.8 9.4 63 3.6 NNE 2 7 1 4 1018.8 1017.9 0.0
24/07:00am 14.1 13.6 7.9 66 3.1 CALM 0 0 0 0 1018.5 1017.5 0.0
24/06:30am 15.2 14.7 7.9 61 3.7 CALM 0 6 0 3 1018.1 1017.1 0.0
24/06:00am 16.9 15.4 8.4 57 4.4 NNE 6 7 3 4 1017.7 1016.7 0.0
24/05:30am 16.6 16.0 7.3 54 4.7 CALM 0 0 0 0 1017.6 1016.6 0.0
24/05:00am 15.6 15.2 8.1 61 3.8 CALM 0 0 0 0 1017.4 1016.4 0.0
24/04:30am 17.2 16.6 7.6 53 4.9 CALM 0 0 0 0 1017.2 1016.2 0.0
24/04:00am 17.7 17.2 8.0 53 5.0 CALM 0 0 0 0 1017.1 1016.1 0.0
24/03:30am 17.3 16.6 6.9 50 5.2 CALM 0 0 0 0 1017.2 1016.2 0.0
24/03:00am 19.0 17.5 7.0 45 6.1 NE 4 6 2 3 1017.3 1016.3 0.0
24/02:30am 20.4 18.4 7.2 42 6.8 ENE 7 9 4 5 1017.1 1016.1 0.0
24/02:00am 19.6 17.5 6.6 42 6.6 NE 7 13 4 7 1017.2 1016.2 0.0
24/01:30am 21.1 20.0 6.9 39 7.3 SSE 2 7 1 4 1017.3 1016.3 0.0
24/01:00am 21.9 19.8 6.8 37 7.8 S 7 9 4 5 1017.5 1016.5 0.0
24/12:30am 22.3 21.6 7.1 37 7.9 CALM 0 7 0 4 1017.4 1016.4 0.0
24/12:00am 22.1 20.8 6.0 35 8.2 E 2 7 1 4 1017.4 1016.4 0.0
 
Date/Time
EDT
Temp
°C
App
Temp
°C
Dew
Point
°C
Rel
Hum
%
Delta-T
°C
Wind Press
QNH
hPa
Press
MSL
hPa
Rain since
9am
mm
Dir  Spd
km/h
Gust
km/h
Spd
kts
Gust
kts
23/11:30pm 22.4 20.3 6.5 35 8.2 S 7 9 4 5 1017.3 1016.3 0.0
23/11:00pm 23.2 21.9 3.9 28 9.5 CALM 0 0 0 0 1017.3 1016.3 0.0
23/10:30pm 23.7 21.6 6.6 33 8.9 WSW 7 7 4 4 1017.2 1016.2 0.0
23/10:00pm 24.6 21.6 3.9 26 10.3 SW 9 11 5 6 1017.2 1016.2 0.0
23/09:30pm 25.2 21.6 2.7 23 11.0 SSW 11 13 6 7 1017.0 1016.0 0.0
23/09:00pm 26.7 23.4 2.5 21 11.9 SW 9 11 5 6 1016.7 1015.7 0.0
23/08:30pm 28.4 24.5 1.3 17 13.2 SW 11 13 6 7 1016.3 1015.3 0.0
23/08:00pm 30.2 25.5 0.7 15 14.4 WSW 15 17 8 9 1016.0 1015.0 0.0
23/07:30pm 32.8 27.5 -0.9 11 16.3 WSW 17 26 9 14 1015.7 1014.7 0.0
23/07:00pm 34.5 28.6 -0.8 10 17.3 WSW 20 28 11 15 1015.4 1014.4 0.0
23/06:30pm 35.3 29.1 -3.5 8 18.3 WSW 20 32 11 17 1015.2 1014.2 0.0
23/06:00pm 35.8 28.4 -3.4 8 18.6 W 26 35 14 19 1015.0 1014.0 0.0
23/05:30pm 35.9 28.9 -3.1 8 18.6 W 24 33 13 18 1015.0 1014.0 0.0
23/05:00pm 36.4 29.2 -4.9 7 19.2 WNW 24 37 13 20 1014.9 1013.9 0.0

Other Formats:

Comma delimited format used in spreadsheet applications
http://www.bom.gov.au/fwo/IDN60801/IDN60801.94910.axf

JavaScript Object Notation format (JSON) in row-major order
http://www.bom.gov.au/fwo/IDN60801/IDN60801.94910.json